createdAt,value
2023-06-25T00:01:36.402Z,72.42
2023-06-25T00:04:04.678Z,73.34
2023-06-25T00:06:32.456Z,72.48
2023-06-25T00:09:00.111Z,73.07
2023-06-25T00:11:27.727Z,73.17
2023-06-25T00:13:55.392Z,73.22
2023-06-25T00:16:26.228Z,73.64
2023-06-25T00:18:53.900Z,74.37
2023-06-25T00:21:21.518Z,74.03
2023-06-25T00:23:49.152Z,73.29
2023-06-25T00:26:17.037Z,73.45
2023-06-25T00:28:45.691Z,73.02
2023-06-25T00:31:14.454Z,72.60
2023-06-25T00:33:44.592Z,72.56
2023-06-25T00:36:12.229Z,72.93
2023-06-25T00:38:41.563Z,72.29
2023-06-25T00:41:10.614Z,73.43
2023-06-25T00:43:42.490Z,72.77
2023-06-25T00:46:13.724Z,72.61
2023-06-25T00:48:47.361Z,72.46
2023-06-25T00:51:17.823Z,72.49
2023-06-25T00:53:46.527Z,73.33
2023-06-25T00:56:14.629Z,73.02
2023-06-25T00:58:44.540Z,73.24
2023-06-25T01:01:22.132Z,72.45
2023-06-25T01:03:56.115Z,73.29
2023-06-25T01:06:31.466Z,73.38
2023-06-25T01:09:00.691Z,73.34
2023-06-25T01:11:29.360Z,73.12
2023-06-25T01:13:57.282Z,72.35
2023-06-25T01:16:25.470Z,73.33
2023-06-25T01:21:28.632Z,72.51
2023-06-25T01:23:58.260Z,73.00
2023-06-25T01:26:26.000Z,73.29
2023-06-25T01:28:56.863Z,72.73
2023-06-25T01:31:29.754Z,73.05
2023-06-25T01:33:57.384Z,72.28
2023-06-25T01:36:25.165Z,72.91
2023-06-25T01:38:53.384Z,72.87
2023-06-25T01:41:22.492Z,72.93
2023-06-25T01:43:50.218Z,73.03
2023-06-25T01:46:17.926Z,73.41
2023-06-25T01:48:45.706Z,73.54
2023-06-25T01:51:13.358Z,72.98
2023-06-25T01:53:41.065Z,73.54
2023-06-25T01:56:08.665Z,73.56
2023-06-25T01:58:37.705Z,73.93
2023-06-25T02:01:05.398Z,73.40
2023-06-25T02:03:33.201Z,74.17
2023-06-25T02:06:01.205Z,74.49
2023-06-25T02:08:28.845Z,74.22
2023-06-25T02:10:56.938Z,74.32
2023-06-25T02:13:24.565Z,74.01
2023-06-25T02:15:53.816Z,74.22
2023-06-25T02:18:21.597Z,73.99
2023-06-25T02:20:49.219Z,74.06
2023-06-25T02:23:16.942Z,74.09
2023-06-25T02:25:44.623Z,74.22
2023-06-25T02:28:12.269Z,73.37
2023-06-25T02:30:40.029Z,74.07
2023-06-25T02:33:09.114Z,74.38
2023-06-25T02:35:37.185Z,73.79
2023-06-25T02:38:05.275Z,73.95
2023-06-25T02:40:32.932Z,74.43
2023-06-25T02:43:00.592Z,73.84
2023-06-25T02:45:28.284Z,74.32
2023-06-25T02:47:55.983Z,74.56
2023-06-25T02:50:25.045Z,74.77
2023-06-25T02:52:52.756Z,74.39
2023-06-25T02:55:21.354Z,74.44
2023-06-25T02:57:49.002Z,74.96
2023-06-25T03:00:17.319Z,74.46
2023-06-25T03:02:45.819Z,74.90
2023-06-25T03:05:13.768Z,74.56
2023-06-25T03:07:51.926Z,73.76
2023-06-25T03:10:21.067Z,74.60
2023-06-25T03:12:48.693Z,74.09
2023-06-25T03:15:18.340Z,74.56
2023-06-25T03:17:46.195Z,74.90
2023-06-25T03:20:15.043Z,74.73
2023-06-25T03:22:43.379Z,75.58
2023-06-25T03:25:12.714Z,75.19
2023-06-25T03:27:44.064Z,75.51
2023-06-25T03:30:12.261Z,75.12
2023-06-25T03:32:40.090Z,75.85
2023-06-25T03:35:08.350Z,76.04
2023-06-25T03:37:36.013Z,76.04
2023-06-25T03:40:05.174Z,75.44
2023-06-25T03:42:34.567Z,75.58
2023-06-25T03:45:02.562Z,75.23
2023-06-25T03:47:31.424Z,75.16
2023-06-25T03:49:59.339Z,75.53
2023-06-25T03:52:27.799Z,75.98
2023-06-25T03:54:55.456Z,75.49
2023-06-25T03:57:24.207Z,75.51
2023-06-25T03:59:53.221Z,75.43
2023-06-25T04:02:21.968Z,76.63
2023-06-25T04:04:49.655Z,76.55
2023-06-25T04:07:17.324Z,76.60
2023-06-25T04:09:45.645Z,76.73
2023-06-25T04:12:13.503Z,76.02
2023-06-25T04:14:41.313Z,76.45
2023-06-25T04:17:11.120Z,75.68
2023-06-25T04:19:39.660Z,75.95
2023-06-25T04:22:07.519Z,75.80
2023-06-25T04:24:35.374Z,75.89
2023-06-25T04:27:03.555Z,75.75
2023-06-25T04:29:31.379Z,75.54
2023-06-25T04:32:02.781Z,75.06
2023-06-25T04:34:32.843Z,74.63
2023-06-25T04:37:00.555Z,75.22
2023-06-25T04:39:28.548Z,75.47
2023-06-25T04:41:58.253Z,75.51
2023-06-25T04:44:26.604Z,75.38
2023-06-25T04:46:55.894Z,74.99
2023-06-25T04:49:24.264Z,74.85
2023-06-25T04:51:53.308Z,74.71
2023-06-25T04:54:20.952Z,74.39
2023-06-25T04:56:48.620Z,74.27
2023-06-25T04:59:16.254Z,73.66
2023-06-25T05:01:44.051Z,73.48
2023-06-25T05:04:11.684Z,73.44
2023-06-25T05:06:39.399Z,73.04
2023-06-25T05:09:08.392Z,72.99
2023-06-25T05:11:36.584Z,72.92
2023-06-25T05:14:04.130Z,72.74
2023-06-25T05:16:31.684Z,72.54
2023-06-25T05:18:59.481Z,72.41
2023-06-25T05:21:27.059Z,72.48
2023-06-25T05:23:59.625Z,72.21
2023-06-25T05:26:28.840Z,72.48
2023-06-25T05:28:57.292Z,72.50
2023-06-25T05:31:24.991Z,72.78
2023-06-25T05:33:52.737Z,72.35
2023-06-25T05:36:20.403Z,72.10
2023-06-25T05:38:49.922Z,71.94
2023-06-25T05:41:19.053Z,71.89
2023-06-25T05:43:48.098Z,71.54
2023-06-25T05:46:15.850Z,71.25
2023-06-25T05:48:43.534Z,71.26
2023-06-25T05:51:11.268Z,70.86
2023-06-25T05:53:41.149Z,70.77
2023-06-25T05:56:09.101Z,70.81
2023-06-25T05:58:37.605Z,70.54
2023-06-25T06:01:06.685Z,70.26
2023-06-25T06:03:34.425Z,69.83
2023-06-25T06:06:02.751Z,69.84
2023-06-25T06:08:30.509Z,69.88
2023-06-25T06:10:58.183Z,69.24
2023-06-25T06:13:25.827Z,69.07
2023-06-25T06:15:53.484Z,69.19
2023-06-25T06:18:22.500Z,69.40
2023-06-25T06:20:50.490Z,69.30
2023-06-25T06:23:18.180Z,69.29
2023-06-25T06:25:45.772Z,68.01
2023-06-25T06:28:13.352Z,66.79
2023-06-25T06:30:40.997Z,66.06
2023-06-25T06:33:08.673Z,65.34
2023-06-25T06:35:37.891Z,64.88
2023-06-25T06:38:05.713Z,64.81
2023-06-25T06:40:33.292Z,63.99
2023-06-25T06:43:00.866Z,64.04
2023-06-25T06:45:28.556Z,63.15
2023-06-25T06:47:56.216Z,63.30
2023-06-25T06:50:23.806Z,62.66
2023-06-25T06:52:52.706Z,62.61
2023-06-25T06:55:20.328Z,62.31
2023-06-25T06:57:48.771Z,61.72
2023-06-25T07:00:19.190Z,59.77
2023-06-25T07:02:46.933Z,57.62
2023-06-25T07:05:14.777Z,59.98
2023-06-25T07:07:42.732Z,58.34
2023-06-25T07:10:12.110Z,57.67
2023-06-25T07:12:39.770Z,55.49
2023-06-25T07:15:08.495Z,55.84
2023-06-25T07:17:36.306Z,56.42
2023-06-25T07:20:04.025Z,54.38
2023-06-25T07:22:33.995Z,53.72
2023-06-25T07:25:01.822Z,53.86
2023-06-25T07:27:30.796Z,53.57
2023-06-25T07:29:58.473Z,52.99
2023-06-25T07:32:26.079Z,52.95
2023-06-25T07:34:53.681Z,52.79
2023-06-25T07:37:21.297Z,52.74
2023-06-25T07:39:48.871Z,52.66
2023-06-25T07:42:16.524Z,51.43
2023-06-25T07:44:55.789Z,50.57
2023-06-25T07:47:24.429Z,49.67
2023-06-25T07:49:52.080Z,50.60
2023-06-25T07:52:19.817Z,50.28
2023-06-25T07:54:47.371Z,50.03
2023-06-25T07:57:15.628Z,48.19
2023-06-25T07:59:52.080Z,50.56
2023-06-25T08:02:21.604Z,48.80
2023-06-25T08:04:50.277Z,48.01
2023-06-25T08:07:18.080Z,47.91
2023-06-25T08:09:46.184Z,48.52
2023-06-25T08:12:15.647Z,47.81
2023-06-25T08:14:44.732Z,48.10
2023-06-25T08:17:12.395Z,48.47
2023-06-25T08:19:40.041Z,47.52
2023-06-25T08:22:07.890Z,47.54
2023-06-25T08:24:35.503Z,47.14
2023-06-25T08:27:03.101Z,42.87
2023-06-25T08:29:31.977Z,42.98
2023-06-25T08:32:00.959Z,43.39
2023-06-25T08:34:28.740Z,43.67
2023-06-25T08:36:56.509Z,42.09
2023-06-25T08:39:24.352Z,41.58
2023-06-25T08:41:52.235Z,39.96
2023-06-25T08:44:19.959Z,42.02
2023-06-25T08:46:49.419Z,43.05
2023-06-25T08:49:18.781Z,40.63
2023-06-25T08:51:46.523Z,39.86
2023-06-25T08:54:14.191Z,38.50
2023-06-25T08:56:42.003Z,38.54
2023-06-25T08:59:09.737Z,38.32
2023-06-25T09:01:37.436Z,38.06
2023-06-25T09:04:05.275Z,37.78
2023-06-25T09:06:54.287Z,36.57
2023-06-25T09:09:28.312Z,35.32
2023-06-25T09:11:55.953Z,34.42
2023-06-25T09:14:23.828Z,35.05
2023-06-25T09:16:52.211Z,34.10
2023-06-25T09:19:20.412Z,35.85
2023-06-25T09:21:49.752Z,36.44
2023-06-25T09:24:18.982Z,32.14
2023-06-25T09:26:47.964Z,33.64
2023-06-25T09:29:16.978Z,34.07
2023-06-25T09:31:45.155Z,33.34
2023-06-25T09:34:14.992Z,32.78
2023-06-25T09:36:42.712Z,33.75
2023-06-25T09:39:13.685Z,33.97
2023-06-25T09:41:43.234Z,33.20
2023-06-25T09:44:11.940Z,32.20
2023-06-25T09:46:41.582Z,31.71
2023-06-25T09:49:09.466Z,30.43
2023-06-25T09:51:44.413Z,30.62
2023-06-25T09:54:17.062Z,30.83
2023-06-25T09:56:46.832Z,31.76
2023-06-25T09:59:14.555Z,32.02
2023-06-25T10:01:42.614Z,30.59
2023-06-25T10:04:10.741Z,31.96
2023-06-25T10:06:39.584Z,32.91
2023-06-25T10:09:07.886Z,31.81
2023-06-25T10:11:37.073Z,31.46
2023-06-25T10:14:06.494Z,30.79
2023-06-25T10:19:05.555Z,31.96
2023-06-25T10:21:33.373Z,32.84
2023-06-25T10:24:03.081Z,31.23
2023-06-25T10:26:32.332Z,31.51
2023-06-25T10:29:03.283Z,29.62
2023-06-25T10:31:39.252Z,31.36
2023-06-25T10:34:08.440Z,30.06
2023-06-25T10:36:36.242Z,28.60
2023-06-25T10:39:04.761Z,29.76
2023-06-25T10:41:33.785Z,29.70
2023-06-25T10:44:02.760Z,28.59
2023-06-25T10:46:34.390Z,29.85
2023-06-25T10:49:05.063Z,29.33
2023-06-25T10:51:35.056Z,29.10
2023-06-25T10:54:02.645Z,28.64
2023-06-25T10:56:30.275Z,29.91
2023-06-25T10:58:58.421Z,28.09
2023-06-25T11:01:34.882Z,29.84
2023-06-25T11:04:02.926Z,27.84
2023-06-25T11:06:38.247Z,26.84
2023-06-25T11:09:05.988Z,26.39
2023-06-25T11:11:33.663Z,27.02
2023-06-25T11:14:02.310Z,28.55
2023-06-25T11:16:31.297Z,25.18
2023-06-25T11:18:58.911Z,26.37
2023-06-25T11:21:26.487Z,27.47
2023-06-25T11:23:54.144Z,25.82
2023-06-25T11:26:22.816Z,26.44
2023-06-25T11:28:50.873Z,26.30
2023-06-25T11:31:18.541Z,25.79
2023-06-25T11:33:56.663Z,26.63
2023-06-25T11:36:24.960Z,26.07
2023-06-25T11:38:52.598Z,25.91
2023-06-25T11:41:28.371Z,26.33
2023-06-25T11:43:55.942Z,25.38
2023-06-25T11:46:23.594Z,25.87
2023-06-25T11:48:52.330Z,27.50
2023-06-25T11:51:21.349Z,26.61
2023-06-25T11:53:49.030Z,27.65
2023-06-25T11:56:16.685Z,25.99
2023-06-25T11:58:44.215Z,26.24
2023-06-25T12:01:12.883Z,24.22
2023-06-25T12:03:40.525Z,26.80
2023-06-25T12:06:08.637Z,24.09
2023-06-25T12:08:37.609Z,24.68
2023-06-25T12:11:05.272Z,24.37
2023-06-25T12:13:33.042Z,24.45
2023-06-25T12:16:00.619Z,23.57
2023-06-25T12:18:28.307Z,22.57
2023-06-25T12:20:55.859Z,22.04
2023-06-25T12:23:23.477Z,21.94
2023-06-25T12:25:52.407Z,23.59
2023-06-25T12:28:20.008Z,21.36
2023-06-25T12:30:47.726Z,19.98
2023-06-25T12:33:15.502Z,20.55
2023-06-25T12:35:43.205Z,19.99
2023-06-25T12:38:10.831Z,19.08
2023-06-25T12:40:38.445Z,19.66
2023-06-25T12:43:07.392Z,20.10
2023-06-25T12:45:35.118Z,20.25
2023-06-25T12:48:02.899Z,18.92
2023-06-25T12:50:30.611Z,18.02
2023-06-25T12:52:58.191Z,19.60
2023-06-25T12:55:25.825Z,19.43
2023-06-25T12:57:53.499Z,17.88
2023-06-25T13:00:33.840Z,16.91
2023-06-25T13:03:08.475Z,18.77
2023-06-25T13:05:36.318Z,18.09
2023-06-25T13:08:04.150Z,16.90
2023-06-25T13:10:31.799Z,16.52
2023-06-25T13:12:59.524Z,16.71
2023-06-25T13:15:29.065Z,15.65
2023-06-25T13:17:56.893Z,15.74
2023-06-25T13:20:24.564Z,15.18
2023-06-25T13:22:52.534Z,15.82
2023-06-25T13:25:20.176Z,14.60
2023-06-25T13:27:47.861Z,14.32
2023-06-25T13:30:15.521Z,14.83
2023-06-25T13:32:44.542Z,14.04
2023-06-25T13:35:12.218Z,14.80
2023-06-25T13:37:39.845Z,16.68
2023-06-25T13:40:08.845Z,15.01
2023-06-25T13:42:36.613Z,14.94
2023-06-25T13:45:04.924Z,15.00
2023-06-25T13:47:32.594Z,13.72
2023-06-25T13:50:02.017Z,14.73
2023-06-25T13:52:29.796Z,14.50
2023-06-25T13:54:57.507Z,15.57
2023-06-25T13:57:25.115Z,15.59
2023-06-25T13:59:52.727Z,14.72
2023-06-25T14:02:20.442Z,14.13
2023-06-25T14:04:48.377Z,14.41
2023-06-25T14:07:17.670Z,15.37
2023-06-25T14:09:45.329Z,14.61
2023-06-25T14:12:13.001Z,14.53
2023-06-25T14:14:40.928Z,14.34
2023-06-25T14:17:08.593Z,14.65
2023-06-25T14:19:36.307Z,14.36
2023-06-25T14:22:04.189Z,13.13
2023-06-25T14:24:33.157Z,13.33
2023-06-25T14:27:00.824Z,13.09
2023-06-25T14:29:28.552Z,12.80
2023-06-25T14:31:56.194Z,12.69
2023-06-25T14:34:23.957Z,12.26
2023-06-25T14:36:51.523Z,11.61
2023-06-25T14:39:19.193Z,12.21
2023-06-25T14:41:48.075Z,11.23
2023-06-25T14:44:15.693Z,11.54
2023-06-25T14:46:43.307Z,11.24
2023-06-25T14:49:10.948Z,10.85
2023-06-25T14:51:38.937Z,10.82
2023-06-25T14:54:06.565Z,10.21
2023-06-25T14:56:34.719Z,11.03
2023-06-25T14:59:03.947Z,10.51
2023-06-25T15:01:31.588Z,9.79
2023-06-25T15:03:59.508Z,9.68
2023-06-25T15:06:35.591Z,9.71
2023-06-25T15:09:04.101Z,7.88
2023-06-25T15:11:31.785Z,8.71
2023-06-25T15:14:00.600Z,9.48
2023-06-25T15:16:30.059Z,8.86
2023-06-25T15:18:57.771Z,8.76
2023-06-25T15:21:25.427Z,8.07
2023-06-25T15:23:53.143Z,8.10
2023-06-25T15:26:20.789Z,8.18
2023-06-25T15:28:48.516Z,8.37
2023-06-25T15:31:16.261Z,7.43
2023-06-25T15:33:45.260Z,7.44
2023-06-25T15:36:13.512Z,7.94
2023-06-25T15:38:42.024Z,7.31
2023-06-25T15:41:09.824Z,7.28
2023-06-25T15:43:37.476Z,7.55
2023-06-25T15:46:05.226Z,6.85
2023-06-25T15:48:33.546Z,7.07
2023-06-25T15:51:02.562Z,7.31
2023-06-25T15:53:30.216Z,6.93
2023-06-25T15:55:57.984Z,7.18
2023-06-25T15:58:25.648Z,6.74
2023-06-25T16:00:53.320Z,6.71
2023-06-25T16:03:21.157Z,6.71
2023-06-25T16:05:48.866Z,6.63
2023-06-25T16:08:17.895Z,7.00
2023-06-25T16:10:45.509Z,6.84
2023-06-25T16:13:13.107Z,6.92
2023-06-25T16:15:41.032Z,6.74
2023-06-25T16:18:08.783Z,6.69
2023-06-25T16:20:36.454Z,6.90
2023-06-25T16:23:04.215Z,7.27
2023-06-25T16:25:33.448Z,6.99
2023-06-25T16:28:01.160Z,6.79
2023-06-25T16:30:29.007Z,6.65
2023-06-25T16:32:57.188Z,6.49
2023-06-25T16:35:24.961Z,6.31
2023-06-25T16:37:57.533Z,6.05
2023-06-25T16:40:28.952Z,6.64
2023-06-25T16:42:58.101Z,6.76
2023-06-25T16:45:25.739Z,6.83
2023-06-25T16:47:53.376Z,6.31
2023-06-25T16:50:21.043Z,6.56
2023-06-25T16:52:48.660Z,6.70
2023-06-25T16:55:16.292Z,7.46
2023-06-25T16:57:44.090Z,6.70
2023-06-25T17:00:14.249Z,7.36
2023-06-25T17:02:44.417Z,7.70
2023-06-25T17:05:14.670Z,6.88
2023-06-25T17:07:42.376Z,7.54
2023-06-25T17:10:10.455Z,6.77
2023-06-25T17:12:38.143Z,7.22
2023-06-25T17:15:06.195Z,7.06
2023-06-25T17:17:35.133Z,7.27
2023-06-25T17:20:03.016Z,8.03
2023-06-25T17:22:30.653Z,8.14
2023-06-25T17:24:58.274Z,7.73
2023-06-25T17:27:25.928Z,7.05
2023-06-25T17:29:54.084Z,7.91
2023-06-25T17:32:21.948Z,7.29
2023-06-25T17:34:50.981Z,6.60
2023-06-25T17:37:18.574Z,7.02
2023-06-25T17:39:46.312Z,6.66
2023-06-25T17:42:14.120Z,6.27
2023-06-25T17:44:41.782Z,6.51
2023-06-25T17:47:09.541Z,6.66
2023-06-25T17:49:37.176Z,6.69
2023-06-25T17:52:07.477Z,7.46
2023-06-25T17:54:35.140Z,7.88
2023-06-25T17:57:03.329Z,8.18
2023-06-25T17:59:31.087Z,8.23
2023-06-25T18:01:58.808Z,8.87
2023-06-25T18:04:26.498Z,9.06
2023-06-25T18:06:54.151Z,9.06
2023-06-25T18:09:23.132Z,9.69
2023-06-25T18:11:50.794Z,10.26
2023-06-25T18:14:18.457Z,10.19
2023-06-25T18:16:46.045Z,10.20
2023-06-25T18:19:13.640Z,10.92
2023-06-25T18:21:41.250Z,11.73
2023-06-25T18:24:08.954Z,13.26
2023-06-25T18:26:38.670Z,14.77
2023-06-25T18:29:06.430Z,15.75
2023-06-25T18:31:34.690Z,17.17
2023-06-25T18:34:02.882Z,18.73
2023-06-25T18:36:30.656Z,20.91
2023-06-25T18:38:58.288Z,22.89
2023-06-25T18:41:25.929Z,23.70
2023-06-25T18:43:54.928Z,25.60
2023-06-25T18:46:22.646Z,26.36
2023-06-25T18:48:50.326Z,27.89
2023-06-25T18:51:18.044Z,29.24
2023-06-25T18:53:45.712Z,30.15
2023-06-25T18:56:13.361Z,30.95
2023-06-25T18:58:41.470Z,31.91
2023-06-25T19:01:10.639Z,33.00
2023-06-25T19:03:38.603Z,33.75
2023-06-25T19:06:06.827Z,34.92
2023-06-25T19:08:34.479Z,36.60
2023-06-25T19:11:02.144Z,36.83
2023-06-25T19:13:29.754Z,38.63
2023-06-25T19:15:57.443Z,38.04
2023-06-25T19:18:26.423Z,39.39
2023-06-25T19:20:54.063Z,39.71
2023-06-25T19:25:53.513Z,40.33
2023-06-25T19:28:21.584Z,40.64
2023-06-25T19:30:49.348Z,41.23
2023-06-25T19:33:17.192Z,41.65
2023-06-25T19:35:46.532Z,42.75
2023-06-25T19:38:14.163Z,42.87
2023-06-25T19:40:41.853Z,43.88
2023-06-25T19:43:09.546Z,43.93
2023-06-25T19:45:37.197Z,44.95
2023-06-25T19:48:05.156Z,45.62
2023-06-25T19:50:32.856Z,46.07
2023-06-25T19:53:01.881Z,46.24
2023-06-25T19:55:29.548Z,46.99
2023-06-25T19:57:57.184Z,47.73
2023-06-25T20:00:24.784Z,47.93
2023-06-25T20:02:52.446Z,48.50
2023-06-25T20:05:20.482Z,48.49
2023-06-25T20:07:49.385Z,49.21
2023-06-25T20:10:19.292Z,49.64
2023-06-25T20:12:49.633Z,49.72
2023-06-25T20:15:18.488Z,49.45
2023-06-25T20:17:46.282Z,50.40
2023-06-25T20:20:14.278Z,51.27
2023-06-25T20:22:41.940Z,51.34
2023-06-25T20:25:10.383Z,51.53
2023-06-25T20:27:39.424Z,52.21
2023-06-25T20:30:08.496Z,51.98
2023-06-25T20:32:36.149Z,52.38
2023-06-25T20:35:03.880Z,52.48
2023-06-25T20:37:31.586Z,53.22
2023-06-25T20:39:59.391Z,52.99
2023-06-25T20:42:27.069Z,53.01
2023-06-25T20:44:56.264Z,53.40
2023-06-25T20:47:23.923Z,53.61
2023-06-25T20:49:51.789Z,54.04
2023-06-25T20:52:19.413Z,54.54
2023-06-25T20:54:49.639Z,54.44
2023-06-25T20:57:17.321Z,54.89
2023-06-25T20:59:45.723Z,55.47
2023-06-25T21:02:14.845Z,56.20
2023-06-25T21:04:42.535Z,56.51
2023-06-25T21:11:22.579Z,56.65
2023-06-25T21:13:50.227Z,57.06
2023-06-25T21:16:17.896Z,57.79
2023-06-25T21:18:46.937Z,57.78
2023-06-25T21:21:14.637Z,57.93
2023-06-25T21:23:42.276Z,58.44
2023-06-25T21:26:09.861Z,59.28
2023-06-25T21:28:38.126Z,59.66
2023-06-25T21:31:05.794Z,60.12
2023-06-25T21:33:33.488Z,60.25
2023-06-25T21:36:02.426Z,60.91
2023-06-25T21:38:30.028Z,60.76
2023-06-25T21:40:57.861Z,61.13
2023-06-25T21:43:25.408Z,61.05
2023-06-25T21:45:53.110Z,61.48
2023-06-25T21:48:20.658Z,61.80
2023-06-25T21:50:48.318Z,61.72
2023-06-25T21:53:20.275Z,61.52
2023-06-25T21:55:47.957Z,62.00
2023-06-25T21:58:15.695Z,62.35
2023-06-25T22:00:43.339Z,62.43
2023-06-25T22:03:11.104Z,62.34
2023-06-25T22:05:38.709Z,62.51
2023-06-25T22:08:06.626Z,62.56
2023-06-25T22:10:35.783Z,62.72
2023-06-25T22:13:03.536Z,63.19
2023-06-25T22:15:31.193Z,62.71
2023-06-25T22:17:59.191Z,62.94
2023-06-25T22:20:30.997Z,62.88
2023-06-25T22:22:58.700Z,63.23
2023-06-25T22:25:26.280Z,63.33
2023-06-25T22:27:55.826Z,63.42
2023-06-25T22:30:23.495Z,64.00
2023-06-25T22:32:51.140Z,64.16
2023-06-25T22:35:18.839Z,64.22
2023-06-25T22:37:46.507Z,64.47
2023-06-25T22:40:14.232Z,64.75
2023-06-25T22:42:41.927Z,64.67
2023-06-25T22:45:11.143Z,64.91
2023-06-25T22:47:40.389Z,64.76
2023-06-25T22:50:09.230Z,65.13
2023-06-25T22:52:36.978Z,65.37
2023-06-25T22:55:04.716Z,65.70
2023-06-25T22:57:32.272Z,65.86
2023-06-25T22:59:59.844Z,65.72
2023-06-25T23:02:28.909Z,65.96
2023-06-25T23:04:57.240Z,65.58
2023-06-25T23:07:24.981Z,65.46
2023-06-25T23:09:52.620Z,65.00
2023-06-25T23:12:20.270Z,64.76
2023-06-25T23:14:47.873Z,64.35
2023-06-25T23:17:15.606Z,64.76
2023-06-25T23:19:45.713Z,65.66
2023-06-25T23:22:14.595Z,65.94
2023-06-25T23:24:45.113Z,65.92
2023-06-25T23:27:13.520Z,65.85
2023-06-25T23:29:41.560Z,65.76
2023-06-25T23:32:11.839Z,65.64
2023-06-25T23:34:40.097Z,65.93
2023-06-25T23:37:09.048Z,66.15
2023-06-25T23:39:37.733Z,65.87
2023-06-25T23:42:05.950Z,65.39
2023-06-25T23:44:34.203Z,65.16
2023-06-25T23:47:01.847Z,64.83
2023-06-25T23:49:29.730Z,65.10
2023-06-25T23:51:57.281Z,65.30
2023-06-25T23:54:26.280Z,65.53
2023-06-25T23:56:53.875Z,65.35
2023-06-25T23:59:21.453Z,65.35
